sensor_id;sensor_type;location;lat;lon;timestamp;temperature;humidity
37240;DHT22;23130;48.760;9.178;2024-02-15T00:02:13;10.80;99.90
37240;DHT22;23130;48.760;9.178;2024-02-15T00:04:39;10.80;99.90
37240;DHT22;23130;48.760;9.178;2024-02-15T00:07:04;10.80;99.90
37240;DHT22;23130;48.760;9.178;2024-02-15T00:09:30;10.80;99.90
37240;DHT22;23130;48.760;9.178;2024-02-15T00:11:56;10.80;99.90
37240;DHT22;23130;48.760;9.178;2024-02-15T00:14:21;10.80;99.90
37240;DHT22;23130;48.760;9.178;2024-02-15T00:16:47;10.80;99.90
37240;DHT22;23130;48.760;9.178;2024-02-15T00:19:13;10.80;99.90
37240;DHT22;23130;48.760;9.178;2024-02-15T00:21:42;10.80;99.90
37240;DHT22;23130;48.760;9.178;2024-02-15T00:24:08;10.80;99.90
37240;DHT22;23130;48.760;9.178;2024-02-15T00:26:33;10.80;99.90
37240;DHT22;23130;48.760;9.178;2024-02-15T00:28:59;10.80;99.90
37240;DHT22;23130;48.760;9.178;2024-02-15T00:31:24;10.90;99.90
37240;DHT22;23130;48.760;9.178;2024-02-15T00:33:50;10.90;99.90
37240;DHT22;23130;48.760;9.178;2024-02-15T00:36:15;11.00;99.90
37240;DHT22;23130;48.760;9.178;2024-02-15T00:38:41;11.00;99.90
37240;DHT22;23130;48.760;9.178;2024-02-15T00:41:08;11.00;99.90
37240;DHT22;23130;48.760;9.178;2024-02-15T00:43:34;11.00;99.90
37240;DHT22;23130;48.760;9.178;2024-02-15T00:45:59;11.10;99.90
37240;DHT22;23130;48.760;9.178;2024-02-15T00:48:25;11.10;99.90
37240;DHT22;23130;48.760;9.178;2024-02-15T00:50:54;11.10;99.90
37240;DHT22;23130;48.760;9.178;2024-02-15T00:53:19;11.10;99.90
37240;DHT22;23130;48.760;9.178;2024-02-15T00:55:46;11.10;99.90
37240;DHT22;23130;48.760;9.178;2024-02-15T00:58:11;11.10;99.90
37240;DHT22;23130;48.760;9.178;2024-02-15T01:00:37;11.10;99.90
37240;DHT22;23130;48.760;9.178;2024-02-15T01:03:03;11.00;99.90
37240;DHT22;23130;48.760;9.178;2024-02-15T01:05:29;11.00;99.90
37240;DHT22;23130;48.760;9.178;2024-02-15T01:07:56;11.00;99.90
37240;DHT22;23130;48.760;9.178;2024-02-15T01:10:22;10.90;99.90
37240;DHT22;23130;48.760;9.178;2024-02-15T01:12:49;10.90;99.90
37240;DHT22;23130;48.760;9.178;2024-02-15T01:15:15;10.90;99.90
37240;DHT22;23130;48.760;9.178;2024-02-15T01:17:45;10.90;99.90
37240;DHT22;23130;48.760;9.178;2024-02-15T01:20:11;10.90;99.90
37240;DHT22;23130;48.760;9.178;2024-02-15T01:22:36;10.80;99.90
37240;DHT22;23130;48.760;9.178;2024-02-15T01:25:02;10.80;99.90
37240;DHT22;23130;48.760;9.178;2024-02-15T01:27:28;10.80;99.90
37240;DHT22;23130;48.760;9.178;2024-02-15T01:29:56;10.80;99.90
37240;DHT22;23130;48.760;9.178;2024-02-15T01:32:21;10.80;99.90
37240;DHT22;23130;48.760;9.178;2024-02-15T01:34:46;10.80;99.90
37240;DHT22;23130;48.760;9.178;2024-02-15T01:37:14;10.80;99.90
37240;DHT22;23130;48.760;9.178;2024-02-15T01:39:39;10.70;99.90
37240;DHT22;23130;48.760;9.178;2024-02-15T01:42:05;10.70;99.90
37240;DHT22;23130;48.760;9.178;2024-02-15T01:44:31;10.60;99.90
37240;DHT22;23130;48.760;9.178;2024-02-15T01:46:57;10.60;99.90
37240;DHT22;23130;48.760;9.178;2024-02-15T01:49:23;10.50;99.90
37240;DHT22;23130;48.760;9.178;2024-02-15T01:51:51;10.40;99.90
37240;DHT22;23130;48.760;9.178;2024-02-15T01:54:18;10.30;99.90
37240;DHT22;23130;48.760;9.178;2024-02-15T01:56:44;10.30;99.90
37240;DHT22;23130;48.760;9.178;2024-02-15T01:59:10;10.20;99.90
37240;DHT22;23130;48.760;9.178;2024-02-15T02:01:36;10.10;99.90
37240;DHT22;23130;48.760;9.178;2024-02-15T02:04:02;9.90;99.90
37240;DHT22;23130;48.760;9.178;2024-02-15T02:06:28;9.90;99.90
37240;DHT22;23130;48.760;9.178;2024-02-15T02:08:55;9.80;99.90
37240;DHT22;23130;48.760;9.178;2024-02-15T02:11:20;9.70;99.90
37240;DHT22;23130;48.760;9.178;2024-02-15T02:13:46;9.60;99.90
37240;DHT22;23130;48.760;9.178;2024-02-15T02:16:24;9.50;99.90
37240;DHT22;23130;48.760;9.178;2024-02-15T02:18:49;9.50;99.90
37240;DHT22;23130;48.760;9.178;2024-02-15T02:21:16;9.40;99.90
37240;DHT22;23130;48.760;9.178;2024-02-15T02:23:42;9.40;99.90
37240;DHT22;23130;48.760;9.178;2024-02-15T02:26:08;9.40;99.90
37240;DHT22;23130;48.760;9.178;2024-02-15T02:28:35;9.30;99.90
37240;DHT22;23130;48.760;9.178;2024-02-15T02:31:03;9.30;99.90
37240;DHT22;23130;48.760;9.178;2024-02-15T02:33:28;9.40;99.90
37240;DHT22;23130;48.760;9.178;2024-02-15T02:35:54;9.40;99.90
37240;DHT22;23130;48.760;9.178;2024-02-15T02:38:22;9.30;99.90
37240;DHT22;23130;48.760;9.178;2024-02-15T02:40:52;9.30;99.90
37240;DHT22;23130;48.760;9.178;2024-02-15T02:43:18;9.30;99.90
37240;DHT22;23130;48.760;9.178;2024-02-15T02:45:44;9.30;99.90
37240;DHT22;23130;48.760;9.178;2024-02-15T02:48:10;9.20;99.90
37240;DHT22;23130;48.760;9.178;2024-02-15T02:50:37;9.20;99.90
37240;DHT22;23130;48.760;9.178;2024-02-15T02:53:03;9.20;99.90
37240;DHT22;23130;48.760;9.178;2024-02-15T02:55:28;9.20;99.90
37240;DHT22;23130;48.760;9.178;2024-02-15T02:57:54;9.30;99.90
37240;DHT22;23130;48.760;9.178;2024-02-15T03:00:20;9.30;99.90
37240;DHT22;23130;48.760;9.178;2024-02-15T03:02:47;9.20;99.90
37240;DHT22;23130;48.760;9.178;2024-02-15T03:05:12;9.20;99.90
37240;DHT22;23130;48.760;9.178;2024-02-15T03:07:41;9.20;99.90
37240;DHT22;23130;48.760;9.178;2024-02-15T03:10:06;9.20;99.90
37240;DHT22;23130;48.760;9.178;2024-02-15T03:12:36;9.20;99.90
37240;DHT22;23130;48.760;9.178;2024-02-15T03:15:04;9.20;99.90
37240;DHT22;23130;48.760;9.178;2024-02-15T03:17:33;9.20;99.90
37240;DHT22;23130;48.760;9.178;2024-02-15T03:19:58;9.30;99.90
37240;DHT22;23130;48.760;9.178;2024-02-15T03:22:25;9.30;99.90
37240;DHT22;23130;48.760;9.178;2024-02-15T03:24:51;9.30;99.90
37240;DHT22;23130;48.760;9.178;2024-02-15T03:27:17;9.20;99.90
37240;DHT22;23130;48.760;9.178;2024-02-15T03:29:42;9.10;99.90
37240;DHT22;23130;48.760;9.178;2024-02-15T03:32:08;9.00;99.90
37240;DHT22;23130;48.760;9.178;2024-02-15T03:34:36;9.00;99.90
37240;DHT22;23130;48.760;9.178;2024-02-15T03:37:01;9.00;99.90
37240;DHT22;23130;48.760;9.178;2024-02-15T03:39:29;9.00;99.90
37240;DHT22;23130;48.760;9.178;2024-02-15T03:41:55;9.00;99.90
37240;DHT22;23130;48.760;9.178;2024-02-15T03:44:21;9.00;99.90
37240;DHT22;23130;48.760;9.178;2024-02-15T03:46:46;9.00;99.90
37240;DHT22;23130;48.760;9.178;2024-02-15T03:49:19;8.90;99.90
37240;DHT22;23130;48.760;9.178;2024-02-15T03:51:44;8.90;99.90
37240;DHT22;23130;48.760;9.178;2024-02-15T03:54:11;8.90;99.90
37240;DHT22;23130;48.760;9.178;2024-02-15T03:56:46;9.00;99.90
37240;DHT22;23130;48.760;9.178;2024-02-15T03:59:12;9.00;99.90
37240;DHT22;23130;48.760;9.178;2024-02-15T04:01:38;9.00;99.90
37240;DHT22;23130;48.760;9.178;2024-02-15T04:04:04;9.00;99.90
37240;DHT22;23130;48.760;9.178;2024-02-15T04:06:30;9.10;99.90
37240;DHT22;23130;48.760;9.178;2024-02-15T04:08:58;9.20;99.90
37240;DHT22;23130;48.760;9.178;2024-02-15T04:11:25;9.20;99.90
37240;DHT22;23130;48.760;9.178;2024-02-15T04:13:50;9.20;99.90
37240;DHT22;23130;48.760;9.178;2024-02-15T04:16:17;9.20;99.90
37240;DHT22;23130;48.760;9.178;2024-02-15T04:18:43;9.30;99.90
37240;DHT22;23130;48.760;9.178;2024-02-15T04:21:10;9.30;99.90
37240;DHT22;23130;48.760;9.178;2024-02-15T04:23:36;9.40;99.90
37240;DHT22;23130;48.760;9.178;2024-02-15T04:26:01;9.50;99.90
37240;DHT22;23130;48.760;9.178;2024-02-15T04:28:26;9.50;99.90
37240;DHT22;23130;48.760;9.178;2024-02-15T04:30:52;9.60;99.90
37240;DHT22;23130;48.760;9.178;2024-02-15T04:33:18;9.70;99.90
37240;DHT22;23130;48.760;9.178;2024-02-15T04:35:44;9.70;99.90
37240;DHT22;23130;48.760;9.178;2024-02-15T04:38:11;9.70;99.90
37240;DHT22;23130;48.760;9.178;2024-02-15T04:40:36;9.70;99.90
37240;DHT22;23130;48.760;9.178;2024-02-15T04:43:06;9.80;99.90
37240;DHT22;23130;48.760;9.178;2024-02-15T04:45:34;9.80;99.90
37240;DHT22;23130;48.760;9.178;2024-02-15T04:47:59;9.80;99.90
37240;DHT22;23130;48.760;9.178;2024-02-15T04:50:28;9.80;99.90
37240;DHT22;23130;48.760;9.178;2024-02-15T04:52:54;9.90;99.90
37240;DHT22;23130;48.760;9.178;2024-02-15T04:55:20;9.90;99.90
37240;DHT22;23130;48.760;9.178;2024-02-15T04:57:48;9.90;99.90
37240;DHT22;23130;48.760;9.178;2024-02-15T05:00:14;9.90;99.90
37240;DHT22;23130;48.760;9.178;2024-02-15T05:02:40;9.90;99.90
37240;DHT22;23130;48.760;9.178;2024-02-15T05:05:06;9.90;99.90
37240;DHT22;23130;48.760;9.178;2024-02-15T05:07:33;9.90;99.90
37240;DHT22;23130;48.760;9.178;2024-02-15T05:09:59;9.90;99.90
37240;DHT22;23130;48.760;9.178;2024-02-15T05:12:25;9.90;99.90
37240;DHT22;23130;48.760;9.178;2024-02-15T05:14:51;9.90;99.90
37240;DHT22;23130;48.760;9.178;2024-02-15T05:17:18;9.90;99.90
37240;DHT22;23130;48.760;9.178;2024-02-15T05:19:44;9.90;99.90
37240;DHT22;23130;48.760;9.178;2024-02-15T05:22:10;9.90;99.90
37240;DHT22;23130;48.760;9.178;2024-02-15T05:24:37;9.90;99.90
37240;DHT22;23130;48.760;9.178;2024-02-15T05:27:04;9.90;99.90
37240;DHT22;23130;48.760;9.178;2024-02-15T05:29:29;9.90;99.90
37240;DHT22;23130;48.760;9.178;2024-02-15T05:31:59;9.90;99.90
37240;DHT22;23130;48.760;9.178;2024-02-15T05:34:25;9.90;99.90
37240;DHT22;23130;48.760;9.178;2024-02-15T05:36:50;9.90;99.90
37240;DHT22;23130;48.760;9.178;2024-02-15T05:39:17;9.90;99.90
37240;DHT22;23130;48.760;9.178;2024-02-15T05:41:45;9.80;99.90
37240;DHT22;23130;48.760;9.178;2024-02-15T05:44:11;9.90;99.90
37240;DHT22;23130;48.760;9.178;2024-02-15T05:46:37;9.90;99.90
37240;DHT22;23130;48.760;9.178;2024-02-15T05:49:05;10.00;99.90
37240;DHT22;23130;48.760;9.178;2024-02-15T05:51:30;9.90;99.90
37240;DHT22;23130;48.760;9.178;2024-02-15T05:53:57;9.90;99.90
37240;DHT22;23130;48.760;9.178;2024-02-15T05:56:27;9.80;99.90
37240;DHT22;23130;48.760;9.178;2024-02-15T05:58:54;9.80;99.90
37240;DHT22;23130;48.760;9.178;2024-02-15T06:01:19;9.70;99.90
37240;DHT22;23130;48.760;9.178;2024-02-15T06:03:45;9.70;99.90
37240;DHT22;23130;48.760;9.178;2024-02-15T06:06:13;9.70;99.90
37240;DHT22;23130;48.760;9.178;2024-02-15T06:08:40;9.60;99.90
37240;DHT22;23130;48.760;9.178;2024-02-15T06:11:05;9.60;99.90
37240;DHT22;23130;48.760;9.178;2024-02-15T06:13:32;9.60;99.90
37240;DHT22;23130;48.760;9.178;2024-02-15T06:15:57;9.60;99.90
37240;DHT22;23130;48.760;9.178;2024-02-15T06:18:23;9.60;99.90
37240;DHT22;23130;48.760;9.178;2024-02-15T06:20:50;9.60;99.90
37240;DHT22;23130;48.760;9.178;2024-02-15T06:23:16;9.60;99.90
37240;DHT22;23130;48.760;9.178;2024-02-15T06:25:42;9.60;99.90
37240;DHT22;23130;48.760;9.178;2024-02-15T06:28:08;9.60;99.90
37240;DHT22;23130;48.760;9.178;2024-02-15T06:30:59;9.60;99.90
37240;DHT22;23130;48.760;9.178;2024-02-15T06:33:43;9.60;99.90
37240;DHT22;23130;48.760;9.178;2024-02-15T06:36:27;9.60;99.90
37240;DHT22;23130;48.760;9.178;2024-02-15T06:39:12;9.60;99.90
37240;DHT22;23130;48.760;9.178;2024-02-15T06:41:56;9.50;99.90
37240;DHT22;23130;48.760;9.178;2024-02-15T06:44:21;9.50;99.90
37240;DHT22;23130;48.760;9.178;2024-02-15T06:46:50;9.50;99.90
37240;DHT22;23130;48.760;9.178;2024-02-15T06:49:16;9.40;99.90
37240;DHT22;23130;48.760;9.178;2024-02-15T06:51:41;9.40;99.90
37240;DHT22;23130;48.760;9.178;2024-02-15T06:54:07;9.40;99.90
37240;DHT22;23130;48.760;9.178;2024-02-15T06:56:39;9.30;99.90
37240;DHT22;23130;48.760;9.178;2024-02-15T06:59:08;9.30;99.90
37240;DHT22;23130;48.760;9.178;2024-02-15T07:01:35;9.30;99.90
37240;DHT22;23130;48.760;9.178;2024-02-15T07:04:00;9.30;99.90
37240;DHT22;23130;48.760;9.178;2024-02-15T07:06:28;9.30;99.90
37240;DHT22;23130;48.760;9.178;2024-02-15T07:08:54;9.40;99.90
37240;DHT22;23130;48.760;9.178;2024-02-15T07:11:22;9.40;99.90
37240;DHT22;23130;48.760;9.178;2024-02-15T07:13:49;9.40;99.90
37240;DHT22;23130;48.760;9.178;2024-02-15T07:16:18;9.40;99.90
37240;DHT22;23130;48.760;9.178;2024-02-15T07:18:43;9.50;99.90
37240;DHT22;23130;48.760;9.178;2024-02-15T07:21:11;9.50;99.90
37240;DHT22;23130;48.760;9.178;2024-02-15T07:23:40;9.60;99.90
37240;DHT22;23130;48.760;9.178;2024-02-15T07:26:06;9.60;99.90
37240;DHT22;23130;48.760;9.178;2024-02-15T07:28:32;9.70;99.90
37240;DHT22;23130;48.760;9.178;2024-02-15T07:30:58;9.70;99.90
37240;DHT22;23130;48.760;9.178;2024-02-15T07:33:23;9.80;99.90
37240;DHT22;23130;48.760;9.178;2024-02-15T07:35:49;9.90;99.90
37240;DHT22;23130;48.760;9.178;2024-02-15T07:38:17;10.00;99.90
37240;DHT22;23130;48.760;9.178;2024-02-15T07:40:43;10.00;99.90
37240;DHT22;23130;48.760;9.178;2024-02-15T07:43:15;10.10;99.90
37240;DHT22;23130;48.760;9.178;2024-02-15T07:45:41;10.20;99.90
37240;DHT22;23130;48.760;9.178;2024-02-15T07:48:07;10.20;99.90
37240;DHT22;23130;48.760;9.178;2024-02-15T07:50:32;10.40;99.90
37240;DHT22;23130;48.760;9.178;2024-02-15T07:52:58;10.40;99.90
37240;DHT22;23130;48.760;9.178;2024-02-15T07:55:23;10.50;99.90
37240;DHT22;23130;48.760;9.178;2024-02-15T07:57:52;10.60;99.90
37240;DHT22;23130;48.760;9.178;2024-02-15T08:00:18;10.70;99.90
37240;DHT22;23130;48.760;9.178;2024-02-15T08:02:43;10.80;99.90
37240;DHT22;23130;48.760;9.178;2024-02-15T08:05:10;11.10;99.90
37240;DHT22;23130;48.760;9.178;2024-02-15T08:07:45;11.00;99.90
37240;DHT22;23130;48.760;9.178;2024-02-15T08:10:11;11.20;99.90
37240;DHT22;23130;48.760;9.178;2024-02-15T08:12:43;11.30;99.90
37240;DHT22;23130;48.760;9.178;2024-02-15T08:15:09;11.50;99.90
37240;DHT22;23130;48.760;9.178;2024-02-15T08:17:43;11.50;99.90
37240;DHT22;23130;48.760;9.178;2024-02-15T08:20:11;11.60;99.90
37240;DHT22;23130;48.760;9.178;2024-02-15T08:22:37;11.70;99.90
37240;DHT22;23130;48.760;9.178;2024-02-15T08:25:13;11.70;99.90
37240;DHT22;23130;48.760;9.178;2024-02-15T08:27:42;11.80;99.90
37240;DHT22;23130;48.760;9.178;2024-02-15T08:30:09;11.80;99.90
37240;DHT22;23130;48.760;9.178;2024-02-15T08:32:36;11.90;99.90
37240;DHT22;23130;48.760;9.178;2024-02-15T08:35:02;12.10;99.90
37240;DHT22;23130;48.760;9.178;2024-02-15T08:37:30;12.20;99.90
37240;DHT22;23130;48.760;9.178;2024-02-15T08:39:56;12.30;99.90
37240;DHT22;23130;48.760;9.178;2024-02-15T08:42:23;12.40;99.90
37240;DHT22;23130;48.760;9.178;2024-02-15T08:44:50;12.60;99.90
37240;DHT22;23130;48.760;9.178;2024-02-15T08:47:15;12.80;99.90
37240;DHT22;23130;48.760;9.178;2024-02-15T08:49:41;12.80;99.90
37240;DHT22;23130;48.760;9.178;2024-02-15T08:52:06;12.90;99.90
37240;DHT22;23130;48.760;9.178;2024-02-15T08:54:33;12.90;99.90
37240;DHT22;23130;48.760;9.178;2024-02-15T08:56:59;12.80;99.90
37240;DHT22;23130;48.760;9.178;2024-02-15T08:59:24;12.90;99.90
37240;DHT22;23130;48.760;9.178;2024-02-15T09:01:50;12.80;99.90
37240;DHT22;23130;48.760;9.178;2024-02-15T09:04:16;12.90;99.90
37240;DHT22;23130;48.760;9.178;2024-02-15T09:06:41;12.90;99.90
37240;DHT22;23130;48.760;9.178;2024-02-15T09:09:08;13.00;99.90
37240;DHT22;23130;48.760;9.178;2024-02-15T09:11:33;13.00;99.90
37240;DHT22;23130;48.760;9.178;2024-02-15T09:14:00;13.30;99.90
37240;DHT22;23130;48.760;9.178;2024-02-15T09:16:25;13.00;99.90
37240;DHT22;23130;48.760;9.178;2024-02-15T09:18:51;13.00;99.90
37240;DHT22;23130;48.760;9.178;2024-02-15T09:21:16;13.00;99.90
37240;DHT22;23130;48.760;9.178;2024-02-15T09:23:41;13.00;99.90
37240;DHT22;23130;48.760;9.178;2024-02-15T09:26:07;12.90;99.90
37240;DHT22;23130;48.760;9.178;2024-02-15T09:28:35;12.90;99.90
37240;DHT22;23130;48.760;9.178;2024-02-15T09:31:01;12.90;99.90
37240;DHT22;23130;48.760;9.178;2024-02-15T09:33:27;12.80;99.90
37240;DHT22;23130;48.760;9.178;2024-02-15T09:35:52;12.70;99.90
37240;DHT22;23130;48.760;9.178;2024-02-15T09:38:20;12.70;99.90
37240;DHT22;23130;48.760;9.178;2024-02-15T09:40:49;12.70;99.90
37240;DHT22;23130;48.760;9.178;2024-02-15T09:43:15;12.50;99.90
37240;DHT22;23130;48.760;9.178;2024-02-15T09:45:41;12.60;99.90
37240;DHT22;23130;48.760;9.178;2024-02-15T09:48:06;12.50;99.90
37240;DHT22;23130;48.760;9.178;2024-02-15T09:50:34;12.60;99.90
37240;DHT22;23130;48.760;9.178;2024-02-15T09:53:01;12.50;99.90
37240;DHT22;23130;48.760;9.178;2024-02-15T09:55:28;12.50;99.90
37240;DHT22;23130;48.760;9.178;2024-02-15T09:57:54;12.50;99.90
37240;DHT22;23130;48.760;9.178;2024-02-15T10:00:20;12.50;99.90
37240;DHT22;23130;48.760;9.178;2024-02-15T10:02:52;12.50;99.90
37240;DHT22;23130;48.760;9.178;2024-02-15T10:05:18;12.50;99.90
37240;DHT22;23130;48.760;9.178;2024-02-15T10:07:44;12.60;99.90
37240;DHT22;23130;48.760;9.178;2024-02-15T10:12:48;12.60;99.90
37240;DHT22;23130;48.760;9.178;2024-02-15T10:17:59;12.80;99.90
37240;DHT22;23130;48.760;9.178;2024-02-15T10:20:25;12.90;99.90
37240;DHT22;23130;48.760;9.178;2024-02-15T10:23:14;12.90;99.90
37240;DHT22;23130;48.760;9.178;2024-02-15T10:25:39;13.20;99.90
37240;DHT22;23130;48.760;9.178;2024-02-15T10:28:08;13.20;99.90
37240;DHT22;23130;48.760;9.178;2024-02-15T10:30:37;13.20;99.90
37240;DHT22;23130;48.760;9.178;2024-02-15T10:33:04;13.20;99.90
37240;DHT22;23130;48.760;9.178;2024-02-15T10:35:29;13.20;99.90
37240;DHT22;23130;48.760;9.178;2024-02-15T10:38:04;13.30;99.90
37240;DHT22;23130;48.760;9.178;2024-02-15T10:40:30;13.40;99.90
37240;DHT22;23130;48.760;9.178;2024-02-15T10:42:56;13.40;99.90
37240;DHT22;23130;48.760;9.178;2024-02-15T10:45:23;13.50;99.90
37240;DHT22;23130;48.760;9.178;2024-02-15T10:47:50;13.60;99.90
37240;DHT22;23130;48.760;9.178;2024-02-15T10:50:16;13.60;99.90
37240;DHT22;23130;48.760;9.178;2024-02-15T10:52:51;13.60;99.90
37240;DHT22;23130;48.760;9.178;2024-02-15T10:55:21;13.80;99.90
37240;DHT22;23130;48.760;9.178;2024-02-15T10:57:47;13.90;99.90
37240;DHT22;23130;48.760;9.178;2024-02-15T11:00:15;14.00;99.90
37240;DHT22;23130;48.760;9.178;2024-02-15T11:02:50;14.10;99.90
37240;DHT22;23130;48.760;9.178;2024-02-15T11:05:20;14.10;99.90
37240;DHT22;23130;48.760;9.178;2024-02-15T11:07:49;14.20;99.90
37240;DHT22;23130;48.760;9.178;2024-02-15T11:10:15;14.20;99.90
37240;DHT22;23130;48.760;9.178;2024-02-15T11:12:42;14.20;99.90
37240;DHT22;23130;48.760;9.178;2024-02-15T11:15:11;14.40;99.90
37240;DHT22;23130;48.760;9.178;2024-02-15T11:20:08;14.50;99.90
37240;DHT22;23130;48.760;9.178;2024-02-15T11:22:36;14.50;99.90
37240;DHT22;23130;48.760;9.178;2024-02-15T11:25:03;14.60;99.90
37240;DHT22;23130;48.760;9.178;2024-02-15T11:27:36;14.60;99.90
37240;DHT22;23130;48.760;9.178;2024-02-15T11:30:04;14.70;99.90
37240;DHT22;23130;48.760;9.178;2024-02-15T11:32:50;14.80;99.90
37240;DHT22;23130;48.760;9.178;2024-02-15T11:35:18;14.90;99.90
37240;DHT22;23130;48.760;9.178;2024-02-15T11:43:01;15.10;99.90
37240;DHT22;23130;48.760;9.178;2024-02-15T11:45:29;15.20;99.90
37240;DHT22;23130;48.760;9.178;2024-02-15T11:48:02;15.20;99.90
37240;DHT22;23130;48.760;9.178;2024-02-15T11:50:28;15.30;99.90
37240;DHT22;23130;48.760;9.178;2024-02-15T11:53:03;15.30;99.90
37240;DHT22;23130;48.760;9.178;2024-02-15T11:55:38;15.50;99.90
37240;DHT22;23130;48.760;9.178;2024-02-15T11:58:04;15.60;99.90
37240;DHT22;23130;48.760;9.178;2024-02-15T12:00:42;15.60;99.90
37240;DHT22;23130;48.760;9.178;2024-02-15T12:03:26;15.60;99.90
37240;DHT22;23130;48.760;9.178;2024-02-15T12:06:10;15.70;99.90
37240;DHT22;23130;48.760;9.178;2024-02-15T12:08:54;15.90;99.90
37240;DHT22;23130;48.760;9.178;2024-02-15T12:11:39;15.90;99.90
37240;DHT22;23130;48.760;9.178;2024-02-15T12:14:23;16.10;99.90
37240;DHT22;23130;48.760;9.178;2024-02-15T12:17:07;16.00;99.90
37240;DHT22;23130;48.760;9.178;2024-02-15T12:19:52;16.00;99.90
37240;DHT22;23130;48.760;9.178;2024-02-15T12:22:28;16.10;99.90
37240;DHT22;23130;48.760;9.178;2024-02-15T12:25:02;16.10;99.90
37240;DHT22;23130;48.760;9.178;2024-02-15T12:27:45;16.20;99.90
37240;DHT22;23130;48.760;9.178;2024-02-15T12:32:40;16.30;99.90
37240;DHT22;23130;48.760;9.178;2024-02-15T12:35:14;16.40;99.90
37240;DHT22;23130;48.760;9.178;2024-02-15T12:37:48;16.50;99.90
37240;DHT22;23130;48.760;9.178;2024-02-15T12:40:18;16.50;99.90
37240;DHT22;23130;48.760;9.178;2024-02-15T12:42:44;16.60;99.90
37240;DHT22;23130;48.760;9.178;2024-02-15T12:45:18;16.70;99.90
37240;DHT22;23130;48.760;9.178;2024-02-15T12:47:50;16.90;99.90
37240;DHT22;23130;48.760;9.178;2024-02-15T12:50:16;17.10;99.90
37240;DHT22;23130;48.760;9.178;2024-02-15T12:52:42;17.20;99.90
37240;DHT22;23130;48.760;9.178;2024-02-15T12:55:13;17.30;99.90
37240;DHT22;23130;48.760;9.178;2024-02-15T12:57:39;17.30;99.90
37240;DHT22;23130;48.760;9.178;2024-02-15T13:00:07;17.40;99.90
37240;DHT22;23130;48.760;9.178;2024-02-15T13:02:38;17.40;99.90
37240;DHT22;23130;48.760;9.178;2024-02-15T13:05:04;17.40;99.90
37240;DHT22;23130;48.760;9.178;2024-02-15T13:07:30;17.30;99.90
37240;DHT22;23130;48.760;9.178;2024-02-15T13:09:56;17.20;99.90
37240;DHT22;23130;48.760;9.178;2024-02-15T13:12:22;17.10;99.90
37240;DHT22;23130;48.760;9.178;2024-02-15T13:14:48;17.00;99.90
37240;DHT22;23130;48.760;9.178;2024-02-15T13:17:15;17.10;99.90
37240;DHT22;23130;48.760;9.178;2024-02-15T13:19:45;17.00;99.90
37240;DHT22;23130;48.760;9.178;2024-02-15T13:22:12;17.10;99.90
37240;DHT22;23130;48.760;9.178;2024-02-15T13:24:37;17.10;99.90
37240;DHT22;23130;48.760;9.178;2024-02-15T13:27:05;17.10;99.90
37240;DHT22;23130;48.760;9.178;2024-02-15T13:29:30;17.20;99.90
37240;DHT22;23130;48.760;9.178;2024-02-15T13:31:58;17.20;99.90
37240;DHT22;23130;48.760;9.178;2024-02-15T13:34:25;17.20;99.90
37240;DHT22;23130;48.760;9.178;2024-02-15T13:36:51;17.10;99.90
37240;DHT22;23130;48.760;9.178;2024-02-15T13:39:16;17.10;99.90
37240;DHT22;23130;48.760;9.178;2024-02-15T13:41:44;17.10;99.90
37240;DHT22;23130;48.760;9.178;2024-02-15T13:44:09;17.10;99.90
37240;DHT22;23130;48.760;9.178;2024-02-15T13:46:36;17.30;99.90
37240;DHT22;23130;48.760;9.178;2024-02-15T13:49:01;17.30;99.90
37240;DHT22;23130;48.760;9.178;2024-02-15T13:51:27;17.40;99.90
37240;DHT22;23130;48.760;9.178;2024-02-15T13:53:52;17.30;99.90
37240;DHT22;23130;48.760;9.178;2024-02-15T13:56:17;17.30;99.90
37240;DHT22;23130;48.760;9.178;2024-02-15T13:58:43;17.30;99.90
37240;DHT22;23130;48.760;9.178;2024-02-15T14:01:08;17.30;99.90
37240;DHT22;23130;48.760;9.178;2024-02-15T14:03:35;17.30;99.90
37240;DHT22;23130;48.760;9.178;2024-02-15T14:06:00;17.30;99.90
37240;DHT22;23130;48.760;9.178;2024-02-15T14:08:26;17.30;99.90
37240;DHT22;23130;48.760;9.178;2024-02-15T14:10:51;17.10;99.90
37240;DHT22;23130;48.760;9.178;2024-02-15T14:13:18;17.10;99.90
37240;DHT22;23130;48.760;9.178;2024-02-15T14:15:47;17.00;99.90
37240;DHT22;23130;48.760;9.178;2024-02-15T14:18:13;17.00;99.90
37240;DHT22;23130;48.760;9.178;2024-02-15T14:20:39;17.00;99.90
37240;DHT22;23130;48.760;9.178;2024-02-15T14:23:04;16.90;99.90
37240;DHT22;23130;48.760;9.178;2024-02-15T14:25:39;16.90;99.90
37240;DHT22;23130;48.760;9.178;2024-02-15T14:28:04;16.90;99.90
37240;DHT22;23130;48.760;9.178;2024-02-15T14:30:33;16.80;99.90
37240;DHT22;23130;48.760;9.178;2024-02-15T14:33:17;16.90;99.90
37240;DHT22;23130;48.760;9.178;2024-02-15T14:35:44;16.80;99.90
37240;DHT22;23130;48.760;9.178;2024-02-15T14:38:11;16.80;99.90
37240;DHT22;23130;48.760;9.178;2024-02-15T14:40:38;16.80;99.90
37240;DHT22;23130;48.760;9.178;2024-02-15T14:43:05;16.80;99.90
37240;DHT22;23130;48.760;9.178;2024-02-15T14:45:31;16.70;99.90
37240;DHT22;23130;48.760;9.178;2024-02-15T14:47:58;16.70;99.90
37240;DHT22;23130;48.760;9.178;2024-02-15T14:50:24;16.60;99.90
37240;DHT22;23130;48.760;9.178;2024-02-15T14:52:51;16.60;99.90
37240;DHT22;23130;48.760;9.178;2024-02-15T14:55:21;16.60;99.90
37240;DHT22;23130;48.760;9.178;2024-02-15T14:57:47;16.70;99.90
37240;DHT22;23130;48.760;9.178;2024-02-15T15:00:13;16.60;99.90
37240;DHT22;23130;48.760;9.178;2024-02-15T15:02:50;16.60;99.90
37240;DHT22;23130;48.760;9.178;2024-02-15T15:05:16;16.60;99.90
37240;DHT22;23130;48.760;9.178;2024-02-15T15:08:17;16.50;99.90
37240;DHT22;23130;48.760;9.178;2024-02-15T15:11:01;16.60;99.90
37240;DHT22;23130;48.760;9.178;2024-02-15T15:13:45;16.60;99.90
37240;DHT22;23130;48.760;9.178;2024-02-15T15:16:11;16.60;99.90
37240;DHT22;23130;48.760;9.178;2024-02-15T15:18:40;16.60;99.90
37240;DHT22;23130;48.760;9.178;2024-02-15T15:21:06;16.50;99.90
37240;DHT22;23130;48.760;9.178;2024-02-15T15:23:32;16.50;99.90
37240;DHT22;23130;48.760;9.178;2024-02-15T15:26:00;16.40;99.90
37240;DHT22;23130;48.760;9.178;2024-02-15T15:28:26;16.40;99.90
37240;DHT22;23130;48.760;9.178;2024-02-15T15:30:53;16.40;99.90
37240;DHT22;23130;48.760;9.178;2024-02-15T15:33:20;16.20;99.90
37240;DHT22;23130;48.760;9.178;2024-02-15T15:35:46;16.10;99.90
37240;DHT22;23130;48.760;9.178;2024-02-15T15:38:13;16.00;99.90
37240;DHT22;23130;48.760;9.178;2024-02-15T15:40:38;15.90;99.90
37240;DHT22;23130;48.760;9.178;2024-02-15T15:43:04;15.80;99.90
37240;DHT22;23130;48.760;9.178;2024-02-15T15:45:33;15.80;99.90
37240;DHT22;23130;48.760;9.178;2024-02-15T15:47:59;15.60;99.90
37240;DHT22;23130;48.760;9.178;2024-02-15T15:50:31;15.60;99.90
37240;DHT22;23130;48.760;9.178;2024-02-15T15:53:04;15.50;99.90
37240;DHT22;23130;48.760;9.178;2024-02-15T15:55:30;15.50;99.90